Main page
METAR-TAF:

METAR-TAF

Airports :

Benbecula Airport

Benbecula, Scotland

latitude: 57-28N, longitude: 007-22W, elevation: 6 m

Current weather observation

The report was made 15 hours and 19 minutes ago, at 12:20 UTC
Wind 14 kt from the West/Northwest
Temperature 12°C
Humidity 62%
Pressure 1013 hPa
Visibility 10 km or more
Few clouds at a height of 2200 ft
Scattered clouds at a height of 4000 ft

METAR: EGPL 221220Z 30014KT 9999 FEW022 SCT040 12/05 Q1013

Time: 04:39 (03:39 UTC)

Forecast

The report was made 16 hours and 45 minutes ago, at 10:54 UTC
Forecast valid from 22 at 12 UTC to 22 at 15 UTC
Wind 14 kt from the West/Northwest
Visibility 10 km or more
Scattered clouds at a height of 2500 ft
Probability 30% :
Temporary
from 22 at 12 UTC to 22 at 15 UTC
Visibility: 6000 m
rain showers

TAF: EGPL 221054Z 2212/2215 30014KT 9999 SCT025 PROB30 TEMPO 2212/2215 6000 SHRA

Weather observations and forecasts of more than 4000 airports (METAR and TAF reports).

The available stations are represented by yellow and red dots on the map.

Hover mouse over dot to see the name of the station.

Then click to see weather observations and forecasts.

To change the map : click on the green buttons with a black cross to zoom in, on the green button with a dash to zoom out, or on the green arrows for adjacent maps.


METAR-TAF: